This is the latest recevied weather packets stored in our database for station/object OE-11073. If no packets are shown the sender has not sent any weather packets the latest 10 day(s).
| Time | Temp. | Humidity | Pressure | Rain* | Wind** | Luminosity | Snow |
|---|---|---|---|---|---|---|---|
| 1787952910 | 21.11° C | 64% | - | 0 mm | - | 0 W/m² | - |
| 1787952310 | 20.56° C | 66% | - | 0 mm | - | 0 W/m² | - |
| 1787951483 | 21.11° C | 66% | - | 0 mm | - | 0 W/m² | - |
| 1787951110 | 20.56° C | 70% | - | 0 mm | - | 0 W/m² | - |
| 1787950510 | 19.44° C | 76% | - | 0 mm | - | 0 W/m² | - |
| 1787949683 | 21.11° C | 68% | - | 0 mm | - | 0 W/m² | - |
| 1787949310 | 20° C | 75% | - | 0 mm | - | 0 W/m² | - |
| 1787948710 | 20° C | 74% | - | 0 mm | - | 0 W/m² | - |
| 1787947883 | 20° C | 75% | - | 0 mm | - | 0 W/m² | - |
| 1787947509 | 19.44° C | 79% | - | 0 mm | - | 0 W/m² | - |
| 1787946910 | 19.44° C | 80% | - | 0 mm | - | 0 W/m² | - |
| 1787946083 | 19.44° C | 78% | - | 0 mm | - | 0 W/m² | - |
| 1787945710 | 20° C | 74% | - | 0 mm | - | 0 W/m² | - |
| 1787945109 | 21.11° C | 69% | - | 0 mm | - | 0 W/m² | - |
| 1787944283 | 20.56° C | 71% | - | 0 mm | - | 0 W/m² | - |
| 1787943910 | 21.11° C | 68% | - | 0 mm | - | 0 W/m² | - |
| 1787943309 | 21.67° C | 66% | - | 0 mm | - | 0 W/m² | - |
| 1787942483 | 21.11° C | 70% | - | 0 mm | - | 0 W/m² | - |
| 1787941506 | 22.22° C | 66% | - | 0 mm | - | 0 W/m² | - |
| 1787940683 | 22.22° C | 64% | - | 0 mm | - | 0 W/m² | - |
| 1787940309 | 22.22° C | 64% | - | 0 mm | - | 8 W/m² | - |
| 1787939709 | 22.78° C | 63% | - | 0 mm | - | 8 W/m² | - |
| 1787938883 | 22.78° C | 62% | - | 0 mm | - | 15 W/m² | - |
| 1787938510 | 22.78° C | 62% | - | 0 mm | - | 23 W/m² | - |
| 1787937910 | 22.78° C | 63% | - | 0 mm | - | 31 W/m² | - |
* Rain latest hour (hover to see other rain measurements)
** Current wind speed in m/s (hover to see current wind gust speed)